sensor_id;sensor_type;location;lat;lon;timestamp;pressure;altitude;pressure_sealevel;temperature;humidity
17072;BME280;7731;50.720;6.912;2023-08-20T00:01:44;100512.28;;;20.66;100.00
17072;BME280;7731;50.720;6.912;2023-08-20T00:04:25;100508.63;;;20.47;100.00
17072;BME280;7731;50.720;6.912;2023-08-20T00:06:56;100508.63;;;20.47;100.00
17072;BME280;7731;50.720;6.912;2023-08-20T00:09:27;100517.63;;;20.33;100.00
17072;BME280;7731;50.720;6.912;2023-08-20T00:12:04;100514.25;;;20.22;100.00
17072;BME280;7731;50.720;6.912;2023-08-20T00:14:58;100522.09;;;20.22;100.00
17072;BME280;7731;50.720;6.912;2023-08-20T00:17:34;100517.56;;;20.24;100.00
17072;BME280;7731;50.720;6.912;2023-08-20T00:20:08;100510.19;;;20.29;100.00
17072;BME280;7731;50.720;6.912;2023-08-20T00:22:42;100506.59;;;20.30;100.00
17072;BME280;7731;50.720;6.912;2023-08-20T00:25:14;100511.81;;;20.30;100.00
17072;BME280;7731;50.720;6.912;2023-08-20T00:27:48;100514.56;;;20.28;100.00
17072;BME280;7731;50.720;6.912;2023-08-20T00:30:21;100520.38;;;20.11;100.00
17072;BME280;7731;50.720;6.912;2023-08-20T00:32:52;100527.75;;;19.85;100.00
17072;BME280;7731;50.720;6.912;2023-08-20T00:35:23;100523.41;;;19.74;100.00
17072;BME280;7731;50.720;6.912;2023-08-20T00:37:54;100529.22;;;19.77;100.00
17072;BME280;7731;50.720;6.912;2023-08-20T00:40:24;100524.56;;;19.81;100.00
17072;BME280;7731;50.720;6.912;2023-08-20T00:42:57;100542.72;;;19.71;100.00
17072;BME280;7731;50.720;6.912;2023-08-20T00:45:31;100535.16;;;19.68;100.00
17072;BME280;7731;50.720;6.912;2023-08-20T00:48:01;100539.16;;;19.72;100.00
17072;BME280;7731;50.720;6.912;2023-08-20T00:50:32;100544.03;;;19.77;100.00
17072;BME280;7731;50.720;6.912;2023-08-20T00:53:03;100538.44;;;19.82;100.00
17072;BME280;7731;50.720;6.912;2023-08-20T00:55:34;100543.41;;;19.85;100.00
17072;BME280;7731;50.720;6.912;2023-08-20T00:58:06;100534.94;;;19.92;100.00
17072;BME280;7731;50.720;6.912;2023-08-20T01:00:54;100531.63;;;19.90;100.00
17072;BME280;7731;50.720;6.912;2023-08-20T01:03:26;100527.00;;;19.94;100.00
17072;BME280;7731;50.720;6.912;2023-08-20T01:06:07;100531.44;;;19.82;100.00
17072;BME280;7731;50.720;6.912;2023-08-20T01:08:47;100527.63;;;19.75;100.00
17072;BME280;7731;50.720;6.912;2023-08-20T01:11:29;100521.59;;;19.74;100.00
17072;BME280;7731;50.720;6.912;2023-08-20T01:14:14;100528.25;;;19.99;100.00
17072;BME280;7731;50.720;6.912;2023-08-20T01:16:50;100524.41;;;19.94;100.00
17072;BME280;7731;50.720;6.912;2023-08-20T01:19:32;100529.91;;;19.79;100.00
17072;BME280;7731;50.720;6.912;2023-08-20T01:22:53;100532.22;;;19.61;100.00
17072;BME280;7731;50.720;6.912;2023-08-20T01:25:46;100527.56;;;19.65;100.00
17072;BME280;7731;50.720;6.912;2023-08-20T01:28:32;100526.66;;;19.55;100.00
17072;BME280;7731;50.720;6.912;2023-08-20T01:31:03;100529.50;;;19.63;100.00
17072;BME280;7731;50.720;6.912;2023-08-20T01:33:34;100531.38;;;19.61;100.00
17072;BME280;7731;50.720;6.912;2023-08-20T01:36:08;100523.94;;;19.56;100.00
17072;BME280;7731;50.720;6.912;2023-08-20T01:38:39;100521.19;;;19.58;100.00
17072;BME280;7731;50.720;6.912;2023-08-20T01:41:09;100527.13;;;19.60;100.00
17072;BME280;7731;50.720;6.912;2023-08-20T01:43:42;100534.47;;;19.55;100.00
17072;BME280;7731;50.720;6.912;2023-08-20T01:46:16;100532.59;;;19.57;100.00
17072;BME280;7731;50.720;6.912;2023-08-20T01:48:46;100529.75;;;19.49;100.00
17072;BME280;7731;50.720;6.912;2023-08-20T01:51:16;100534.09;;;19.38;100.00
17072;BME280;7731;50.720;6.912;2023-08-20T01:53:49;100530.00;;;19.45;100.00
17072;BME280;7731;50.720;6.912;2023-08-20T01:56:19;100522.69;;;19.39;100.00
17072;BME280;7731;50.720;6.912;2023-08-20T01:58:59;100526.03;;;19.41;100.00
17072;BME280;7731;50.720;6.912;2023-08-20T02:01:29;100520.56;;;19.33;100.00
17072;BME280;7731;50.720;6.912;2023-08-20T02:04:00;100518.19;;;19.41;100.00
17072;BME280;7731;50.720;6.912;2023-08-20T02:06:31;100519.84;;;19.42;100.00
17072;BME280;7731;50.720;6.912;2023-08-20T02:09:01;100526.50;;;19.35;100.00
17072;BME280;7731;50.720;6.912;2023-08-20T02:11:32;100528.63;;;19.30;100.00
17072;BME280;7731;50.720;6.912;2023-08-20T02:14:08;100524.78;;;19.24;100.00
17072;BME280;7731;50.720;6.912;2023-08-20T02:16:39;100536.50;;;19.19;100.00
17072;BME280;7731;50.720;6.912;2023-08-20T02:19:12;100535.31;;;19.12;100.00
17072;BME280;7731;50.720;6.912;2023-08-20T02:21:43;100529.16;;;19.13;100.00
17072;BME280;7731;50.720;6.912;2023-08-20T02:24:13;100526.09;;;19.07;100.00
17072;BME280;7731;50.720;6.912;2023-08-20T02:26:43;100531.53;;;19.16;100.00
17072;BME280;7731;50.720;6.912;2023-08-20T02:29:16;100525.75;;;19.12;100.00
17072;BME280;7731;50.720;6.912;2023-08-20T02:31:47;100532.34;;;19.16;100.00
17072;BME280;7731;50.720;6.912;2023-08-20T02:34:17;100531.78;;;19.13;100.00
17072;BME280;7731;50.720;6.912;2023-08-20T02:36:47;100537.72;;;19.03;100.00
17072;BME280;7731;50.720;6.912;2023-08-20T02:39:21;100541.50;;;18.99;100.00
17072;BME280;7731;50.720;6.912;2023-08-20T02:41:52;100542.59;;;18.97;100.00
17072;BME280;7731;50.720;6.912;2023-08-20T02:44:25;100545.06;;;18.98;100.00
17072;BME280;7731;50.720;6.912;2023-08-20T02:46:55;100550.38;;;19.08;100.00
17072;BME280;7731;50.720;6.912;2023-08-20T02:49:25;100555.34;;;19.11;100.00
17072;BME280;7731;50.720;6.912;2023-08-20T02:52:02;100556.63;;;19.05;100.00
17072;BME280;7731;50.720;6.912;2023-08-20T02:54:33;100561.84;;;19.05;100.00
17072;BME280;7731;50.720;6.912;2023-08-20T02:57:03;100565.41;;;19.04;100.00
17072;BME280;7731;50.720;6.912;2023-08-20T02:59:36;100564.56;;;19.04;100.00
17072;BME280;7731;50.720;6.912;2023-08-20T03:02:12;100569.44;;;18.97;100.00
17072;BME280;7731;50.720;6.912;2023-08-20T03:04:43;100562.56;;;18.96;100.00
17072;BME280;7731;50.720;6.912;2023-08-20T03:07:16;100560.22;;;19.04;100.00
17072;BME280;7731;50.720;6.912;2023-08-20T03:09:46;100555.69;;;19.06;100.00
17072;BME280;7731;50.720;6.912;2023-08-20T03:12:16;100556.38;;;19.08;100.00
17072;BME280;7731;50.720;6.912;2023-08-20T03:14:49;100565.16;;;19.07;100.00
17072;BME280;7731;50.720;6.912;2023-08-20T03:17:25;100557.81;;;19.13;100.00
17072;BME280;7731;50.720;6.912;2023-08-20T03:20:00;100557.34;;;18.96;100.00
17072;BME280;7731;50.720;6.912;2023-08-20T03:22:37;100561.75;;;18.96;100.00
17072;BME280;7731;50.720;6.912;2023-08-20T03:25:15;100567.53;;;18.99;100.00
17072;BME280;7731;50.720;6.912;2023-08-20T03:27:46;100568.97;;;19.03;100.00
17072;BME280;7731;50.720;6.912;2023-08-20T03:30:21;100570.97;;;18.88;100.00
17072;BME280;7731;50.720;6.912;2023-08-20T03:32:55;100560.06;;;18.95;100.00
17072;BME280;7731;50.720;6.912;2023-08-20T03:35:25;100560.91;;;18.95;100.00
17072;BME280;7731;50.720;6.912;2023-08-20T03:37:55;100561.38;;;19.00;100.00
17072;BME280;7731;50.720;6.912;2023-08-20T03:40:27;100572.25;;;19.05;100.00
17072;BME280;7731;50.720;6.912;2023-08-20T03:42:58;100569.06;;;19.13;100.00
17072;BME280;7731;50.720;6.912;2023-08-20T03:45:35;100578.91;;;19.09;100.00
17072;BME280;7731;50.720;6.912;2023-08-20T03:48:09;100583.16;;;18.99;100.00
17072;BME280;7731;50.720;6.912;2023-08-20T03:50:39;100588.84;;;18.93;100.00
17072;BME280;7731;50.720;6.912;2023-08-20T03:53:13;100589.91;;;19.02;100.00
17072;BME280;7731;50.720;6.912;2023-08-20T03:55:48;100590.38;;;19.07;100.00
17072;BME280;7731;50.720;6.912;2023-08-20T03:58:18;100598.06;;;19.08;100.00
17072;BME280;7731;50.720;6.912;2023-08-20T04:00:51;100593.78;;;19.19;100.00
17072;BME280;7731;50.720;6.912;2023-08-20T04:03:22;100598.88;;;19.20;100.00
17072;BME280;7731;50.720;6.912;2023-08-20T04:05:52;100598.97;;;19.30;100.00
17072;BME280;7731;50.720;6.912;2023-08-20T04:08:22;100593.56;;;19.22;100.00
17072;BME280;7731;50.720;6.912;2023-08-20T04:10:53;100604.47;;;19.16;100.00
17072;BME280;7731;50.720;6.912;2023-08-20T04:13:23;100608.97;;;19.14;100.00
17072;BME280;7731;50.720;6.912;2023-08-20T04:15:59;100602.34;;;18.98;100.00
17072;BME280;7731;50.720;6.912;2023-08-20T04:18:49;100598.44;;;18.92;100.00
17072;BME280;7731;50.720;6.912;2023-08-20T04:21:29;100606.72;;;18.98;100.00
17072;BME280;7731;50.720;6.912;2023-08-20T04:24:02;100598.06;;;18.97;100.00
17072;BME280;7731;50.720;6.912;2023-08-20T04:26:35;100615.69;;;18.94;100.00
17072;BME280;7731;50.720;6.912;2023-08-20T04:29:05;100612.25;;;18.82;100.00
17072;BME280;7731;50.720;6.912;2023-08-20T04:31:38;100616.84;;;18.78;100.00
17072;BME280;7731;50.720;6.912;2023-08-20T04:34:12;100607.66;;;18.85;100.00
17072;BME280;7731;50.720;6.912;2023-08-20T04:36:42;100606.59;;;18.88;100.00
17072;BME280;7731;50.720;6.912;2023-08-20T04:39:12;100617.97;;;18.98;100.00
17072;BME280;7731;50.720;6.912;2023-08-20T04:41:43;100623.38;;;18.95;100.00
17072;BME280;7731;50.720;6.912;2023-08-20T04:44:13;100620.31;;;18.90;100.00
17072;BME280;7731;50.720;6.912;2023-08-20T04:47:04;100621.50;;;18.97;100.00
17072;BME280;7731;50.720;6.912;2023-08-20T04:49:35;100624.81;;;18.99;100.00
17072;BME280;7731;50.720;6.912;2023-08-20T04:52:08;100633.13;;;19.04;100.00
17072;BME280;7731;50.720;6.912;2023-08-20T04:54:38;100632.88;;;19.07;100.00
17072;BME280;7731;50.720;6.912;2023-08-20T04:57:09;100625.28;;;19.16;100.00
17072;BME280;7731;50.720;6.912;2023-08-20T04:59:48;100622.00;;;19.14;100.00
17072;BME280;7731;50.720;6.912;2023-08-20T05:02:30;100628.97;;;19.24;100.00
17072;BME280;7731;50.720;6.912;2023-08-20T05:05:02;100629.50;;;19.51;100.00
17072;BME280;7731;50.720;6.912;2023-08-20T05:07:32;100628.34;;;19.43;100.00
17072;BME280;7731;50.720;6.912;2023-08-20T05:10:04;100633.78;;;19.40;100.00
17072;BME280;7731;50.720;6.912;2023-08-20T05:12:39;100628.59;;;19.29;100.00
17072;BME280;7731;50.720;6.912;2023-08-20T05:15:10;100627.41;;;19.44;100.00
17072;BME280;7731;50.720;6.912;2023-08-20T05:17:45;100625.38;;;19.48;100.00
17072;BME280;7731;50.720;6.912;2023-08-20T05:20:15;100629.06;;;19.34;100.00
17072;BME280;7731;50.720;6.912;2023-08-20T05:22:46;100628.25;;;19.34;100.00
17072;BME280;7731;50.720;6.912;2023-08-20T05:25:19;100634.25;;;19.45;100.00
17072;BME280;7731;50.720;6.912;2023-08-20T05:27:52;100637.78;;;19.56;100.00
17072;BME280;7731;50.720;6.912;2023-08-20T05:30:22;100640.44;;;19.44;100.00
17072;BME280;7731;50.720;6.912;2023-08-20T05:32:55;100644.22;;;19.40;100.00
17072;BME280;7731;50.720;6.912;2023-08-20T05:35:25;100655.59;;;19.28;100.00
17072;BME280;7731;50.720;6.912;2023-08-20T05:38:06;100645.50;;;19.35;100.00
17072;BME280;7731;50.720;6.912;2023-08-20T05:40:36;100638.75;;;19.43;100.00
17072;BME280;7731;50.720;6.912;2023-08-20T05:43:07;100640.91;;;19.38;100.00
17072;BME280;7731;50.720;6.912;2023-08-20T05:45:43;100634.94;;;19.59;100.00
17072;BME280;7731;50.720;6.912;2023-08-20T05:48:16;100629.00;;;19.68;100.00
17072;BME280;7731;50.720;6.912;2023-08-20T05:50:46;100635.69;;;19.93;100.00
17072;BME280;7731;50.720;6.912;2023-08-20T05:53:17;100631.47;;;20.13;100.00
17072;BME280;7731;50.720;6.912;2023-08-20T05:55:47;100638.00;;;20.08;100.00
17072;BME280;7731;50.720;6.912;2023-08-20T05:58:17;100628.81;;;20.67;100.00
17072;BME280;7731;50.720;6.912;2023-08-20T06:00:48;100633.38;;;20.54;100.00
17072;BME280;7731;50.720;6.912;2023-08-20T06:03:20;100629.81;;;20.55;100.00
17072;BME280;7731;50.720;6.912;2023-08-20T06:06:03;100636.56;;;21.09;100.00
17072;BME280;7731;50.720;6.912;2023-08-20T06:08:35;100639.00;;;21.32;100.00
17072;BME280;7731;50.720;6.912;2023-08-20T06:11:06;100645.97;;;21.21;100.00
17072;BME280;7731;50.720;6.912;2023-08-20T06:13:43;100651.72;;;21.15;100.00
17072;BME280;7731;50.720;6.912;2023-08-20T06:16:16;100650.69;;;20.97;100.00
17072;BME280;7731;50.720;6.912;2023-08-20T06:18:49;100641.31;;;21.95;100.00
17072;BME280;7731;50.720;6.912;2023-08-20T06:21:26;100640.47;;;22.43;100.00
17072;BME280;7731;50.720;6.912;2023-08-20T06:24:01;100645.69;;;21.75;100.00
17072;BME280;7731;50.720;6.912;2023-08-20T06:26:31;100644.59;;;21.87;100.00
17072;BME280;7731;50.720;6.912;2023-08-20T06:29:02;100645.03;;;22.12;100.00
17072;BME280;7731;50.720;6.912;2023-08-20T06:31:34;100648.88;;;22.08;100.00
17072;BME280;7731;50.720;6.912;2023-08-20T06:34:08;100644.44;;;21.79;100.00
17072;BME280;7731;50.720;6.912;2023-08-20T06:36:38;100642.25;;;21.65;100.00
17072;BME280;7731;50.720;6.912;2023-08-20T06:39:08;100640.22;;;23.22;100.00
17072;BME280;7731;50.720;6.912;2023-08-20T06:41:39;100634.44;;;24.36;100.00
17072;BME280;7731;50.720;6.912;2023-08-20T06:44:09;100625.63;;;25.40;100.00
17072;BME280;7731;50.720;6.912;2023-08-20T06:46:40;100638.16;;;25.79;100.00
17072;BME280;7731;50.720;6.912;2023-08-20T06:49:13;100648.06;;;26.35;100.00
17072;BME280;7731;50.720;6.912;2023-08-20T06:51:47;100645.16;;;27.25;95.24
17072;BME280;7731;50.720;6.912;2023-08-20T06:54:17;100652.31;;;26.44;96.09
17072;BME280;7731;50.720;6.912;2023-08-20T06:56:47;100647.59;;;24.62;100.00
17072;BME280;7731;50.720;6.912;2023-08-20T06:59:18;100648.09;;;25.00;100.00
17072;BME280;7731;50.720;6.912;2023-08-20T07:01:48;100648.06;;;26.10;100.00
17072;BME280;7731;50.720;6.912;2023-08-20T07:04:23;100649.00;;;27.54;86.53
17072;BME280;7731;50.720;6.912;2023-08-20T07:06:59;100636.63;;;27.15;88.30
17072;BME280;7731;50.720;6.912;2023-08-20T07:09:32;100634.69;;;27.09;87.84
17072;BME280;7731;50.720;6.912;2023-08-20T07:12:03;100644.78;;;26.33;97.41
17072;BME280;7731;50.720;6.912;2023-08-20T07:14:36;100645.06;;;25.72;100.00
17072;BME280;7731;50.720;6.912;2023-08-20T07:17:09;100649.75;;;26.92;93.40
17072;BME280;7731;50.720;6.912;2023-08-20T07:20:04;100657.78;;;27.07;88.82
17072;BME280;7731;50.720;6.912;2023-08-20T07:22:35;100653.19;;;27.40;87.56
17072;BME280;7731;50.720;6.912;2023-08-20T07:25:08;100656.09;;;28.61;75.44
17072;BME280;7731;50.720;6.912;2023-08-20T07:27:38;100651.50;;;28.55;78.47
17072;BME280;7731;50.720;6.912;2023-08-20T07:30:11;100666.16;;;28.58;77.61
17072;BME280;7731;50.720;6.912;2023-08-20T07:32:44;100655.88;;;28.78;75.93
17072;BME280;7731;50.720;6.912;2023-08-20T07:35:17;100661.97;;;28.93;73.81
17072;BME280;7731;50.720;6.912;2023-08-20T07:37:53;100649.53;;;29.60;70.85
17072;BME280;7731;50.720;6.912;2023-08-20T07:40:24;100659.00;;;28.66;75.95
17072;BME280;7731;50.720;6.912;2023-08-20T07:42:54;100656.75;;;27.79;80.32
17072;BME280;7731;50.720;6.912;2023-08-20T07:45:25;100647.03;;;31.48;64.36
17072;BME280;7731;50.720;6.912;2023-08-20T07:47:55;100649.06;;;29.93;67.74
17072;BME280;7731;50.720;6.912;2023-08-20T07:50:31;100644.63;;;29.79;69.15
17072;BME280;7731;50.720;6.912;2023-08-20T07:53:01;100645.91;;;30.61;65.38
17072;BME280;7731;50.720;6.912;2023-08-20T07:55:31;100643.25;;;30.61;63.97
17072;BME280;7731;50.720;6.912;2023-08-20T07:58:02;100649.84;;;30.72;64.07
17072;BME280;7731;50.720;6.912;2023-08-20T08:00:35;100655.84;;;28.48;76.86
17072;BME280;7731;50.720;6.912;2023-08-20T08:03:05;100652.59;;;28.76;79.08
17072;BME280;7731;50.720;6.912;2023-08-20T08:05:39;100635.81;;;30.85;64.72
17072;BME280;7731;50.720;6.912;2023-08-20T08:08:10;100636.09;;;32.25;59.49
17072;BME280;7731;50.720;6.912;2023-08-20T08:10:40;100650.28;;;31.30;59.66
17072;BME280;7731;50.720;6.912;2023-08-20T08:13:18;100646.13;;;30.38;63.89
17072;BME280;7731;50.720;6.912;2023-08-20T08:15:49;100646.72;;;32.32;55.32
17072;BME280;7731;50.720;6.912;2023-08-20T08:18:20;100642.63;;;31.76;58.72
17072;BME280;7731;50.720;6.912;2023-08-20T08:20:53;100645.34;;;32.95;52.51
17072;BME280;7731;50.720;6.912;2023-08-20T08:23:26;100660.88;;;30.47;63.31
17072;BME280;7731;50.720;6.912;2023-08-20T08:25:56;100658.09;;;30.55;62.61
17072;BME280;7731;50.720;6.912;2023-08-20T08:28:26;100664.00;;;29.43;71.44
17072;BME280;7731;50.720;6.912;2023-08-20T08:30:57;100649.59;;;30.38;64.73
17072;BME280;7731;50.720;6.912;2023-08-20T08:33:27;100645.22;;;30.94;60.92
17072;BME280;7731;50.720;6.912;2023-08-20T08:36:00;100659.00;;;30.69;63.11
17072;BME280;7731;50.720;6.912;2023-08-20T08:38:30;100660.00;;;31.03;63.06
17072;BME280;7731;50.720;6.912;2023-08-20T08:41:02;100657.22;;;31.25;59.87
17072;BME280;7731;50.720;6.912;2023-08-20T08:43:38;100664.47;;;29.83;66.65
17072;BME280;7731;50.720;6.912;2023-08-20T08:46:13;100662.97;;;30.52;62.30
17072;BME280;7731;50.720;6.912;2023-08-20T08:48:45;100648.00;;;30.72;63.83
17072;BME280;7731;50.720;6.912;2023-08-20T08:51:28;100650.44;;;31.15;59.26
17072;BME280;7731;50.720;6.912;2023-08-20T08:54:01;100646.84;;;31.43;57.68
17072;BME280;7731;50.720;6.912;2023-08-20T08:56:32;100639.28;;;34.33;49.48
17072;BME280;7731;50.720;6.912;2023-08-20T08:59:02;100645.81;;;34.93;45.43
17072;BME280;7731;50.720;6.912;2023-08-20T09:01:39;100649.00;;;33.71;49.06
17072;BME280;7731;50.720;6.912;2023-08-20T09:04:09;100660.13;;;32.64;51.50
17072;BME280;7731;50.720;6.912;2023-08-20T09:06:51;100652.00;;;30.33;59.24
17072;BME280;7731;50.720;6.912;2023-08-20T09:09:22;100653.41;;;32.74;51.47
17072;BME280;7731;50.720;6.912;2023-08-20T09:11:52;100654.91;;;31.70;54.62
17072;BME280;7731;50.720;6.912;2023-08-20T09:14:24;100643.53;;;33.66;47.35
17072;BME280;7731;50.720;6.912;2023-08-20T09:17:00;100646.00;;;33.92;46.25
17072;BME280;7731;50.720;6.912;2023-08-20T09:19:36;100642.91;;;33.63;46.94
17072;BME280;7731;50.720;6.912;2023-08-20T09:22:18;100659.38;;;32.70;50.43
17072;BME280;7731;50.720;6.912;2023-08-20T09:24:54;100655.53;;;32.19;52.29
17072;BME280;7731;50.720;6.912;2023-08-20T09:27:27;100651.88;;;34.45;43.95
17072;BME280;7731;50.720;6.912;2023-08-20T09:29:57;100642.81;;;35.62;38.76
17072;BME280;7731;50.720;6.912;2023-08-20T09:32:28;100644.75;;;36.73;36.85
17072;BME280;7731;50.720;6.912;2023-08-20T09:35:18;100653.59;;;37.14;35.73
17072;BME280;7731;50.720;6.912;2023-08-20T09:37:59;100658.03;;;33.76;41.84
17072;BME280;7731;50.720;6.912;2023-08-20T09:40:31;100652.06;;;36.02;37.99
17072;BME280;7731;50.720;6.912;2023-08-20T09:43:03;100653.75;;;36.67;37.87
17072;BME280;7731;50.720;6.912;2023-08-20T09:45:38;100653.66;;;35.79;38.94
17072;BME280;7731;50.720;6.912;2023-08-20T09:48:18;100660.47;;;35.02;41.18
17072;BME280;7731;50.720;6.912;2023-08-20T09:50:51;100650.44;;;36.01;38.08
17072;BME280;7731;50.720;6.912;2023-08-20T09:53:47;100651.25;;;37.64;34.73
17072;BME280;7731;50.720;6.912;2023-08-20T09:56:29;100646.50;;;40.13;31.10
17072;BME280;7731;50.720;6.912;2023-08-20T09:59:01;100653.66;;;36.38;36.56
17072;BME280;7731;50.720;6.912;2023-08-20T10:01:32;100661.50;;;36.28;37.66
17072;BME280;7731;50.720;6.912;2023-08-20T10:04:03;100653.97;;;35.59;38.36
17072;BME280;7731;50.720;6.912;2023-08-20T10:06:36;100666.34;;;32.31;46.46
17072;BME280;7731;50.720;6.912;2023-08-20T10:09:10;100669.97;;;32.77;46.71
17072;BME280;7731;50.720;6.912;2023-08-20T10:11:41;100660.78;;;33.24;45.35
17072;BME280;7731;50.720;6.912;2023-08-20T10:14:13;100672.06;;;30.71;52.41
17072;BME280;7731;50.720;6.912;2023-08-20T10:16:44;100665.09;;;31.66;50.45
17072;BME280;7731;50.720;6.912;2023-08-20T10:19:20;100666.53;;;30.66;54.04
17072;BME280;7731;50.720;6.912;2023-08-20T10:21:56;100659.81;;;30.13;56.06
17072;BME280;7731;50.720;6.912;2023-08-20T10:24:41;100663.91;;;29.72;61.03
17072;BME280;7731;50.720;6.912;2023-08-20T10:27:12;100661.75;;;30.89;55.83
17072;BME280;7731;50.720;6.912;2023-08-20T10:29:55;100661.81;;;32.51;48.82
17072;BME280;7731;50.720;6.912;2023-08-20T10:32:44;100670.31;;;30.28;55.11
17072;BME280;7731;50.720;6.912;2023-08-20T10:35:23;100662.72;;;31.30;52.36
17072;BME280;7731;50.720;6.912;2023-08-20T10:38:07;100665.94;;;30.70;53.90
17072;BME280;7731;50.720;6.912;2023-08-20T10:40:56;100658.09;;;30.97;54.22
17072;BME280;7731;50.720;6.912;2023-08-20T10:43:31;100658.75;;;30.99;53.97
17072;BME280;7731;50.720;6.912;2023-08-20T10:46:15;100657.94;;;30.98;53.84
17072;BME280;7731;50.720;6.912;2023-08-20T10:48:52;100664.69;;;31.90;50.88
17072;BME280;7731;50.720;6.912;2023-08-20T10:51:26;100657.78;;;32.09;48.42
17072;BME280;7731;50.720;6.912;2023-08-20T10:54:06;100662.91;;;32.30;46.49
17072;BME280;7731;50.720;6.912;2023-08-20T10:56:45;100659.44;;;33.47;46.17
17072;BME280;7731;50.720;6.912;2023-08-20T10:59:20;100647.97;;;36.46;39.32
17072;BME280;7731;50.720;6.912;2023-08-20T11:01:52;100657.91;;;37.15;36.16
17072;BME280;7731;50.720;6.912;2023-08-20T11:04:28;100654.88;;;35.53;39.07
17072;BME280;7731;50.720;6.912;2023-08-20T11:07:00;100655.00;;;34.16;42.94
17072;BME280;7731;50.720;6.912;2023-08-20T11:09:31;100656.53;;;34.06;43.52
17072;BME280;7731;50.720;6.912;2023-08-20T11:12:06;100660.16;;;33.61;44.15
17072;BME280;7731;50.720;6.912;2023-08-20T11:14:36;100661.78;;;32.78;44.97
17072;BME280;7731;50.720;6.912;2023-08-20T11:17:07;100665.06;;;30.06;53.47
17072;BME280;7731;50.720;6.912;2023-08-20T11:19:38;100661.47;;;31.12;52.19
17072;BME280;7731;50.720;6.912;2023-08-20T11:22:10;100662.13;;;30.44;53.00
17072;BME280;7731;50.720;6.912;2023-08-20T11:24:43;100655.56;;;29.90;56.67
17072;BME280;7731;50.720;6.912;2023-08-20T11:27:15;100654.16;;;31.21;52.10
17072;BME280;7731;50.720;6.912;2023-08-20T11:29:55;100654.69;;;31.03;52.04
17072;BME280;7731;50.720;6.912;2023-08-20T11:32:25;100653.09;;;31.15;53.25
17072;BME280;7731;50.720;6.912;2023-08-20T11:34:55;100651.47;;;29.88;54.58
17072;BME280;7731;50.720;6.912;2023-08-20T11:37:27;100655.34;;;30.14;55.62
17072;BME280;7731;50.720;6.912;2023-08-20T11:39:57;100648.44;;;31.24;50.56
17072;BME280;7731;50.720;6.912;2023-08-20T11:42:30;100651.81;;;31.60;49.63
17072;BME280;7731;50.720;6.912;2023-08-20T11:45:01;100649.25;;;30.41;51.83
17072;BME280;7731;50.720;6.912;2023-08-20T11:47:39;100647.28;;;30.92;52.86
17072;BME280;7731;50.720;6.912;2023-08-20T11:50:12;100653.25;;;31.01;51.25
17072;BME280;7731;50.720;6.912;2023-08-20T11:52:42;100642.75;;;30.86;51.59
17072;BME280;7731;50.720;6.912;2023-08-20T11:55:12;100649.94;;;31.54;50.47
17072;BME280;7731;50.720;6.912;2023-08-20T11:57:50;100645.31;;;31.07;52.06
17072;BME280;7731;50.720;6.912;2023-08-20T12:00:26;100650.84;;;31.06;53.19
17072;BME280;7731;50.720;6.912;2023-08-20T12:02:58;100644.06;;;31.03;53.49
17072;BME280;7731;50.720;6.912;2023-08-20T12:05:28;100636.72;;;31.67;50.62
17072;BME280;7731;50.720;6.912;2023-08-20T12:08:01;100632.34;;;32.60;47.23
17072;BME280;7731;50.720;6.912;2023-08-20T12:10:33;100628.22;;;32.64;47.33
17072;BME280;7731;50.720;6.912;2023-08-20T12:13:08;100631.97;;;32.36;48.20
17072;BME280;7731;50.720;6.912;2023-08-20T12:15:41;100617.69;;;32.03;48.04
17072;BME280;7731;50.720;6.912;2023-08-20T12:18:11;100626.25;;;30.97;51.07
17072;BME280;7731;50.720;6.912;2023-08-20T12:20:42;100626.09;;;31.05;51.78
17072;BME280;7731;50.720;6.912;2023-08-20T12:23:12;100621.34;;;30.87;51.93
17072;BME280;7731;50.720;6.912;2023-08-20T12:25:43;100619.41;;;30.68;52.27
17072;BME280;7731;50.720;6.912;2023-08-20T12:28:15;100620.00;;;30.63;52.75
17072;BME280;7731;50.720;6.912;2023-08-20T12:30:49;100622.84;;;30.33;53.88
17072;BME280;7731;50.720;6.912;2023-08-20T12:33:19;100608.88;;;30.88;51.57
17072;BME280;7731;50.720;6.912;2023-08-20T12:35:56;100606.19;;;31.49;50.37
17072;BME280;7731;50.720;6.912;2023-08-20T12:38:26;100605.56;;;31.34;48.75
17072;BME280;7731;50.720;6.912;2023-08-20T12:41:01;100615.03;;;30.95;49.82
17072;BME280;7731;50.720;6.912;2023-08-20T12:43:35;100616.22;;;30.16;52.08
17072;BME280;7731;50.720;6.912;2023-08-20T12:46:08;100624.19;;;29.72;54.34
17072;BME280;7731;50.720;6.912;2023-08-20T12:48:42;100617.81;;;29.45;56.13
17072;BME280;7731;50.720;6.912;2023-08-20T12:51:13;100612.00;;;30.28;53.39
17072;BME280;7731;50.720;6.912;2023-08-20T12:53:50;100610.28;;;30.14;53.86
17072;BME280;7731;50.720;6.912;2023-08-20T12:56:23;100614.28;;;29.38;57.12
17072;BME280;7731;50.720;6.912;2023-08-20T12:58:58;100603.25;;;29.78;55.95
17072;BME280;7731;50.720;6.912;2023-08-20T13:01:28;100605.69;;;28.99;57.91
17072;BME280;7731;50.720;6.912;2023-08-20T13:04:02;100598.84;;;29.42;57.51
17072;BME280;7731;50.720;6.912;2023-08-20T13:06:38;100603.00;;;29.29;55.29
17072;BME280;7731;50.720;6.912;2023-08-20T13:09:14;100596.28;;;29.48;54.79
17072;BME280;7731;50.720;6.912;2023-08-20T13:11:56;100592.72;;;29.41;55.54
17072;BME280;7731;50.720;6.912;2023-08-20T13:14:32;100590.88;;;30.06;54.27
17072;BME280;7731;50.720;6.912;2023-08-20T13:17:07;100592.25;;;30.02;53.81
17072;BME280;7731;50.720;6.912;2023-08-20T13:19:38;100601.63;;;29.98;54.59
17072;BME280;7731;50.720;6.912;2023-08-20T13:22:11;100603.00;;;29.94;55.12
17072;BME280;7731;50.720;6.912;2023-08-20T13:24:44;100604.66;;;29.95;56.31
17072;BME280;7731;50.720;6.912;2023-08-20T13:27:19;100599.34;;;29.95;56.21
17072;BME280;7731;50.720;6.912;2023-08-20T13:29:52;100601.97;;;30.52;53.47